Time;durP1;ratioP1;P1;durP2;ratioP2;P2;SDS_P1;SDS_P2;PMS_P1;PMS_P2;Temp;Humidity;BMP_temperature;BMP_pressure;BME280_temperature;BME280_humidity;BME280_pressure;Samples;Min_cycle;Max_cycle;Signal;HPM_P1;HPM_P2
2021/01/16 00:02:20;;;;;;;9.75;6.63;;;0.30;99.90;;;;;;6948807;28;20397;-69
2021/01/16 00:05:43;;;;;;;9.43;6.85;;;0.40;99.90;;;;;;6945120;28;20419;-69
2021/01/16 00:09:04;;;;;;;10.50;7.22;;;0.20;99.90;;;;;;6944897;28;21051;-68
2021/01/16 00:12:25;;;;;;;9.98;7.03;;;0.20;99.90;;;;;;6933795;28;20404;-68
2021/01/16 00:15:46;;;;;;;10.07;6.70;;;0.20;99.90;;;;;;6933705;28;20492;-69
2021/01/16 00:19:08;;;;;;;10.13;6.95;;;0.30;99.90;;;;;;6957980;28;20397;-69
2021/01/16 00:22:28;;;;;;;9.30;6.70;;;0.20;99.90;;;;;;6961864;28;20797;-68
2021/01/16 00:25:50;;;;;;;9.40;6.50;;;0.20;99.90;;;;;;6925688;28;20407;-68
2021/01/16 00:29:11;;;;;;;9.90;6.70;;;0.30;99.90;;;;;;6935771;28;20431;-68
2021/01/16 00:32:32;;;;;;;9.38;6.80;;;0.20;99.90;;;;;;6946348;28;20400;-69
2021/01/16 00:35:54;;;;;;;9.50;6.93;;;0.20;99.90;;;;;;6942421;28;20420;-68
2021/01/16 00:39:15;;;;;;;10.45;7.00;;;0.20;99.90;;;;;;6937277;28;20534;-68
2021/01/16 00:42:43;;;;;;;10.93;7.17;;;0.20;99.90;;;;;;6958496;28;20391;-68
2021/01/16 00:46:04;;;;;;;10.15;7.05;;;0.20;99.90;;;;;;6950160;28;20403;-69
2021/01/16 00:49:25;;;;;;;10.60;7.03;;;0.30;99.90;;;;;;6950699;28;20407;-69
2021/01/16 00:52:58;;;;;;;10.00;7.00;;;0.30;99.90;;;;;;6942448;28;20430;-69
2021/01/16 00:56:25;;;;;;;10.00;6.85;;;0.30;99.90;;;;;;6948671;28;20411;-69
2021/01/16 00:59:57;;;;;;;10.18;7.20;;;0.20;99.90;;;;;;6934801;28;20500;-69
2021/01/16 01:03:20;;;;;;;10.70;6.87;;;0.20;99.90;;;;;;6926203;28;20797;-69
2021/01/16 01:06:41;;;;;;;11.07;7.32;;;0.30;99.90;;;;;;6931576;28;20401;-69
2021/01/16 01:10:07;;;;;;;10.02;6.88;;;0.30;99.90;;;;;;6951771;28;20490;-68
2021/01/16 01:13:28;;;;;;;10.23;6.80;;;0.30;99.90;;;;;;6933816;28;20434;-68
2021/01/16 01:16:49;;;;;;;10.32;7.13;;;0.20;99.90;;;;;;6949889;28;21010;-68
2021/01/16 01:20:10;;;;;;;9.80;6.80;;;0.30;99.90;;;;;;6942934;28;20938;-69
2021/01/16 01:23:31;;;;;;;11.15;7.30;;;0.20;99.90;;;;;;6941131;28;20422;-69
2021/01/16 01:26:52;;;;;;;9.93;6.82;;;0.10;99.90;;;;;;6943138;28;20399;-68
2021/01/16 01:30:14;;;;;;;10.27;6.90;;;0.10;99.90;;;;;;6947180;28;20537;-68
2021/01/16 01:33:34;;;;;;;10.10;6.50;;;0.20;99.90;;;;;;6953795;28;20528;-68
2021/01/16 01:36:55;;;;;;;9.60;6.63;;;0.20;99.90;;;;;;6932558;28;20830;-68
2021/01/16 01:40:18;;;;;;;10.00;7.10;;;0.20;99.90;;;;;;6937832;28;20466;-68
2021/01/16 01:43:39;;;;;;;10.23;7.00;;;0.00;99.90;;;;;;6937659;28;20905;-68
2021/01/16 01:47:00;;;;;;;11.65;7.47;;;0.10;99.90;;;;;;6939547;28;20414;-69
2021/01/16 01:50:21;;;;;;;9.75;6.65;;;0.10;99.90;;;;;;6958692;28;20456;-69
2021/01/16 01:53:45;;;;;;;9.73;6.65;;;0.20;99.90;;;;;;6933847;28;20419;-69
2021/01/16 01:57:08;;;;;;;10.27;6.83;;;0.10;99.90;;;;;;6943859;28;20409;-69
2021/01/16 02:00:29;;;;;;;9.98;6.90;;;0.10;99.90;;;;;;6940728;28;20396;-68
2021/01/16 02:03:50;;;;;;;10.20;6.60;;;0.20;99.90;;;;;;6948079;28;20484;-68
2021/01/16 02:07:25;;;;;;;11.40;7.15;;;0.10;99.90;;;;;;6940053;28;20877;-68
2021/01/16 02:10:46;;;;;;;10.15;6.90;;;0.10;99.90;;;;;;6942524;28;20492;-68
2021/01/16 02:14:08;;;;;;;10.60;7.05;;;0.10;99.90;;;;;;6945140;28;20428;-68
2021/01/16 02:17:33;;;;;;;10.95;7.40;;;0.10;99.90;;;;;;6942465;28;20415;-68
2021/01/16 02:20:57;;;;;;;11.02;6.93;;;0.10;99.90;;;;;;6937859;28;20398;-68
2021/01/16 02:24:21;;;;;;;11.23;7.20;;;0.00;99.90;;;;;;6951522;28;20403;-68
2021/01/16 02:28:05;;;;;;;9.68;6.90;;;0.00;99.90;;;;;;6959338;28;20407;-68
2021/01/16 02:31:59;;;;;;;10.35;7.32;;;0.10;99.90;;;;;;6948078;28;20413;-69
2021/01/16 02:35:22;;;;;;;10.25;6.93;;;0.00;99.90;;;;;;6936229;28;20415;-69
2021/01/16 02:39:12;;;;;;;9.98;6.90;;;0.10;99.90;;;;;;6955438;28;20394;-69
2021/01/16 02:43:04;;;;;;;10.47;7.00;;;0.00;99.90;;;;;;6941256;28;20408;-69
2021/01/16 02:46:45;;;;;;;10.90;7.30;;;0.00;99.90;;;;;;6946234;28;20425;-69
2021/01/16 02:50:09;;;;;;;11.23;7.47;;;-0.10;99.90;;;;;;6947310;28;20413;-68
2021/01/16 02:53:35;;;;;;;11.02;6.90;;;-0.10;99.90;;;;;;6928978;28;20419;-69
2021/01/16 02:56:56;;;;;;;10.82;7.20;;;0.10;99.90;;;;;;6941834;28;20484;-69
2021/01/16 03:00:21;;;;;;;10.77;7.30;;;0.10;99.90;;;;;;6919376;28;20409;-69
2021/01/16 03:03:42;;;;;;;10.32;6.70;;;0.00;99.90;;;;;;6947885;28;20431;-69
2021/01/16 03:07:06;;;;;;;11.25;7.30;;;0.00;99.90;;;;;;6947642;28;20893;-69
2021/01/16 03:10:28;;;;;;;10.48;7.00;;;0.00;99.90;;;;;;6959581;28;20498;-68
2021/01/16 03:13:50;;;;;;;10.60;7.00;;;0.10;99.90;;;;;;6935752;28;20903;-68
2021/01/16 03:17:15;;;;;;;10.05;6.90;;;0.00;99.90;;;;;;6958137;28;20404;-68
2021/01/16 03:20:36;;;;;;;11.20;7.10;;;0.00;99.90;;;;;;6951908;28;20510;-68
2021/01/16 03:23:57;;;;;;;10.18;6.90;;;0.10;99.90;;;;;;6950279;28;20415;-68
2021/01/16 03:27:19;;;;;;;10.50;6.82;;;0.10;99.90;;;;;;6951615;28;20423;-69
2021/01/16 03:30:40;;;;;;;10.85;7.07;;;0.00;99.90;;;;;;6948375;28;20406;-68
2021/01/16 03:34:01;;;;;;;10.32;6.50;;;0.00;99.90;;;;;;6956746;28;20457;-68
2021/01/16 03:37:22;;;;;;;10.40;7.43;;;0.10;99.90;;;;;;6945812;28;20405;-68
2021/01/16 03:40:47;;;;;;;10.43;7.10;;;0.00;99.90;;;;;;6962820;28;20459;-68
2021/01/16 03:44:07;;;;;;;11.30;7.17;;;0.00;99.90;;;;;;6938125;28;20489;-68
2021/01/16 03:47:28;;;;;;;11.07;7.40;;;0.00;99.90;;;;;;6935320;28;20416;-69
2021/01/16 03:50:49;;;;;;;9.52;6.90;;;0.10;99.90;;;;;;6941940;28;20405;-68
2021/01/16 03:54:10;;;;;;;11.02;7.65;;;0.10;99.90;;;;;;6950277;28;20499;-68
2021/01/16 03:57:31;;;;;;;12.60;8.00;;;0.10;99.90;;;;;;6945621;28;20412;-68
2021/01/16 04:00:52;;;;;;;12.80;8.10;;;0.00;99.90;;;;;;6946506;28;20490;-69
2021/01/16 04:04:13;;;;;;;13.30;8.37;;;0.10;99.90;;;;;;6969197;28;20443;-68
2021/01/16 04:07:34;;;;;;;13.27;8.80;;;0.00;99.90;;;;;;6944094;28;20421;-68
2021/01/16 04:10:55;;;;;;;11.93;8.10;;;0.00;99.90;;;;;;6966973;28;20437;-68
2021/01/16 04:14:16;;;;;;;11.80;8.27;;;0.00;99.90;;;;;;6946587;28;20759;-67
2021/01/16 04:17:37;;;;;;;11.87;7.73;;;0.00;99.90;;;;;;6946887;28;20400;-69
2021/01/16 04:20:57;;;;;;;12.97;8.43;;;0.10;99.90;;;;;;6954964;28;20751;-68
2021/01/16 04:24:18;;;;;;;13.38;8.40;;;0.10;99.90;;;;;;6939295;28;20400;-69
2021/01/16 04:27:39;;;;;;;13.30;8.38;;;0.00;99.90;;;;;;6929975;28;20417;-68
2021/01/16 04:31:00;;;;;;;12.68;8.15;;;0.00;99.90;;;;;;6935933;28;20405;-68
2021/01/16 04:34:21;;;;;;;13.57;8.40;;;0.00;99.90;;;;;;6929556;28;20901;-69
2021/01/16 04:37:45;;;;;;;12.88;8.52;;;-0.10;99.90;;;;;;6944204;28;20411;-69
2021/01/16 04:41:06;;;;;;;12.35;8.50;;;-0.10;99.90;;;;;;6942255;28;20404;-68
2021/01/16 04:44:32;;;;;;;12.15;8.48;;;-0.10;99.90;;;;;;6946246;28;20520;-68
2021/01/16 04:47:57;;;;;;;12.50;8.50;;;-0.10;99.90;;;;;;6935362;28;20807;-68
2021/01/16 04:51:18;;;;;;;12.40;8.30;;;-0.10;99.90;;;;;;6957992;28;20883;-68
2021/01/16 04:54:42;;;;;;;12.85;8.70;;;-0.20;99.90;;;;;;6943562;28;20444;-68
2021/01/16 04:58:08;;;;;;;12.40;9.00;;;-0.30;99.90;;;;;;6933770;28;20392;-68
2021/01/16 05:01:29;;;;;;;14.85;8.60;;;-0.20;99.90;;;;;;6943798;28;20459;-68
2021/01/16 05:04:51;;;;;;;11.45;7.82;;;-0.10;99.90;;;;;;6953674;28;20396;-68
2021/01/16 05:08:11;;;;;;;13.23;8.27;;;-0.20;99.90;;;;;;6955806;28;20963;-67
2021/01/16 05:12:10;;;;;;;13.13;8.40;;;-0.10;99.90;;;;;;6947532;28;20399;-68
2021/01/16 05:15:32;;;;;;;13.83;8.50;;;-0.10;99.90;;;;;;6945964;28;20427;-68
2021/01/16 05:18:54;;;;;;;13.70;8.30;;;-0.10;99.90;;;;;;6935179;28;20427;-68
2021/01/16 05:22:15;;;;;;;11.33;7.73;;;0.00;99.90;;;;;;6957137;28;20432;-68
2021/01/16 05:25:38;;;;;;;12.20;8.07;;;0.00;99.90;;;;;;6935979;28;20402;-68
2021/01/16 05:28:59;;;;;;;12.48;7.97;;;-0.10;99.90;;;;;;6934125;28;20412;-68
2021/01/16 05:32:20;;;;;;;11.30;7.70;;;0.10;99.90;;;;;;6919532;28;20438;-68
2021/01/16 05:35:42;;;;;;;13.00;8.10;;;0.00;99.90;;;;;;6952815;28;20416;-68
2021/01/16 05:39:04;;;;;;;10.93;7.40;;;0.00;99.90;;;;;;6975952;28;20472;-68
2021/01/16 05:42:25;;;;;;;13.48;8.07;;;0.00;99.90;;;;;;6957172;28;20397;-68
2021/01/16 05:45:50;;;;;;;11.85;7.50;;;-0.10;99.90;;;;;;6928036;28;20412;-68
2021/01/16 05:49:19;;;;;;;12.63;8.30;;;-0.10;99.90;;;;;;6946743;28;20486;-69
2021/01/16 05:52:40;;;;;;;12.60;7.82;;;-0.10;99.90;;;;;;6926278;28;20473;-67
2021/01/16 05:56:02;;;;;;;11.73;7.90;;;-0.10;99.90;;;;;;6924309;28;20418;-67
2021/01/16 05:59:30;;;;;;;13.20;8.20;;;0.00;99.90;;;;;;6940379;28;20404;-68
2021/01/16 06:02:52;;;;;;;11.80;7.95;;;0.00;99.90;;;;;;6931840;28;20411;-68
2021/01/16 06:06:17;;;;;;;12.07;8.30;;;-0.10;99.90;;;;;;6922003;28;20394;-67
2021/01/16 06:09:41;;;;;;;13.50;8.70;;;-0.10;99.90;;;;;;6946425;28;20420;-67
2021/01/16 06:13:15;;;;;;;13.10;8.90;;;-0.10;99.90;;;;;;6930360;28;20457;-68
2021/01/16 06:16:55;;;;;;;14.85;8.50;;;-0.20;99.90;;;;;;6923758;28;20437;-67
2021/01/16 06:20:21;;;;;;;13.43;8.20;;;-0.20;99.90;;;;;;6925240;28;20411;-68
2021/01/16 06:23:47;;;;;;;14.90;9.00;;;-0.10;99.90;;;;;;6928832;28;20438;-67
2021/01/16 06:27:26;;;;;;;12.55;8.35;;;-0.20;99.90;;;;;;6930201;28;20879;-67
2021/01/16 06:30:51;;;;;;;12.57;8.73;;;-0.20;99.90;;;;;;6935653;28;20412;-68
2021/01/16 06:34:12;;;;;;;12.15;8.70;;;-0.20;99.90;;;;;;6918039;28;20772;-67
2021/01/16 06:37:50;;;;;;;14.07;8.73;;;-0.20;99.90;;;;;;6925411;28;20496;-67
2021/01/16 06:41:14;;;;;;;14.05;9.10;;;-0.20;99.90;;;;;;6940634;28;20407;-67
2021/01/16 06:44:35;;;;;;;14.95;8.63;;;-0.20;99.90;;;;;;6944562;28;20709;-67
2021/01/16 06:48:00;;;;;;;12.98;8.13;;;-0.20;99.90;;;;;;6935806;28;20452;-67
2021/01/16 06:51:23;;;;;;;13.20;8.80;;;-0.10;99.90;;;;;;6941929;28;20449;-67
2021/01/16 06:54:48;;;;;;;14.40;8.50;;;-0.10;99.90;;;;;;6935796;28;20818;-68
2021/01/16 06:58:18;;;;;;;13.88;9.00;;;-0.10;99.90;;;;;;6934109;28;20395;-67
2021/01/16 07:01:41;;;;;;;22.13;14.23;;;-0.10;99.90;;;;;;6940496;28;20868;-67
2021/01/16 07:05:17;;;;;;;18.00;12.07;;;-0.10;99.90;;;;;;6931054;28;20430;-68
2021/01/16 07:08:42;;;;;;;15.35;8.98;;;-0.20;99.90;;;;;;6927750;28;20409;-67
2021/01/16 07:12:03;;;;;;;22.90;13.88;;;-0.20;99.90;;;;;;6950618;28;20421;-67
2021/01/16 07:15:29;;;;;;;14.15;8.88;;;-0.20;99.90;;;;;;6932474;28;20411;-67
2021/01/16 07:18:51;;;;;;;13.97;8.80;;;-0.30;99.90;;;;;;6921736;28;20399;-70
2021/01/16 07:22:13;;;;;;;13.77;9.02;;;-0.20;99.90;;;;;;6944568;28;20407;-68
2021/01/16 07:25:35;;;;;;;13.02;8.65;;;-0.20;99.90;;;;;;6962466;28;20755;-67
2021/01/16 07:28:56;;;;;;;13.30;8.40;;;-0.30;99.90;;;;;;6946147;28;20418;-67
2021/01/16 07:32:17;;;;;;;14.60;8.98;;;-0.30;99.90;;;;;;6936228;28;20437;-67
2021/01/16 07:35:50;;;;;;;12.40;8.07;;;-0.40;99.90;;;;;;6938183;28;20775;-67
2021/01/16 07:39:12;;;;;;;14.10;8.88;;;-0.30;99.90;;;;;;6957825;28;20406;-67
2021/01/16 07:42:51;;;;;;;22.90;13.77;;;-0.50;99.90;;;;;;6960139;28;21745;-67
2021/01/16 07:46:11;;;;;;;12.18;7.60;;;-0.50;99.90;;;;;;6970957;28;20405;-67
2021/01/16 07:49:42;;;;;;;12.93;8.23;;;-0.50;99.90;;;;;;6966392;28;20399;-67
2021/01/16 07:53:09;;;;;;;14.20;8.60;;;-0.50;99.90;;;;;;6947477;28;20416;-67
2021/01/16 07:56:41;;;;;;;12.20;8.00;;;-0.60;99.90;;;;;;6952631;28;20519;-68
2021/01/16 08:00:06;;;;;;;12.93;8.05;;;-0.60;99.90;;;;;;6927014;28;20396;-68
2021/01/16 08:03:45;;;;;;;13.20;8.30;;;-0.70;99.90;;;;;;6941071;28;20400;-67
2021/01/16 08:07:10;;;;;;;17.20;11.07;;;-0.60;99.90;;;;;;6964637;28;20399;-68
2021/01/16 08:10:33;;;;;;;12.80;7.90;;;-0.60;99.90;;;;;;6934011;28;20469;-68
2021/01/16 08:14:05;;;;;;;12.60;8.30;;;-0.50;99.90;;;;;;6940083;28;20473;-67
2021/01/16 08:17:33;;;;;;;14.90;9.55;;;-0.50;99.90;;;;;;6934200;28;20988;-67
2021/01/16 08:21:00;;;;;;;13.03;8.53;;;-0.50;99.90;;;;;;6948192;28;20419;-68
2021/01/16 08:24:25;;;;;;;13.50;7.90;;;-0.50;99.90;;;;;;6946273;28;20894;-67
2021/01/16 08:27:51;;;;;;;12.02;7.80;;;-0.30;99.90;;;;;;6934419;28;20418;-68
2021/01/16 08:31:29;;;;;;;12.85;7.72;;;-0.30;99.90;;;;;;6928163;28;20411;-67
2021/01/16 08:34:57;;;;;;;11.25;7.90;;;-0.20;99.90;;;;;;6935948;28;20422;-68
2021/01/16 08:38:18;;;;;;;11.43;8.30;;;-0.20;99.90;;;;;;6928650;28;20871;-68
2021/01/16 08:41:40;;;;;;;11.50;7.63;;;-0.20;99.90;;;;;;6927288;28;20414;-68
2021/01/16 08:45:04;;;;;;;11.93;7.88;;;-0.20;99.90;;;;;;6927114;28;20508;-68
2021/01/16 08:48:25;;;;;;;10.60;7.03;;;-0.10;99.90;;;;;;6933559;28;20407;-67
2021/01/16 08:51:52;;;;;;;12.07;7.87;;;-0.10;99.90;;;;;;6929414;28;20419;-68
2021/01/16 08:55:13;;;;;;;10.90;7.40;;;0.00;99.90;;;;;;6941310;28;20426;-68
2021/01/16 08:58:35;;;;;;;11.32;7.50;;;0.00;99.90;;;;;;6922615;28;20522;-68
2021/01/16 09:02:17;;;;;;;10.80;7.60;;;0.20;99.90;;;;;;6943970;28;20900;-68
2021/01/16 09:05:40;;;;;;;11.32;7.63;;;0.20;99.90;;;;;;6948209;28;20406;-68
2021/01/16 09:09:01;;;;;;;11.98;7.38;;;0.40;99.90;;;;;;6924841;28;20423;-68
2021/01/16 09:12:32;;;;;;;11.48;7.20;;;0.40;99.90;;;;;;6923640;28;20877;-67
2021/01/16 09:15:54;;;;;;;12.05;7.85;;;0.50;99.90;;;;;;6926381;28;20439;-67
2021/01/16 09:19:27;;;;;;;10.88;7.10;;;0.60;99.90;;;;;;6935512;28;20885;-67
2021/01/16 09:22:48;;;;;;;11.35;7.35;;;0.50;99.90;;;;;;6916282;28;20407;-68
2021/01/16 09:26:12;;;;;;;10.13;6.80;;;0.60;99.90;;;;;;6949275;28;20423;-68
2021/01/16 09:29:33;;;;;;;9.95;6.90;;;0.70;99.90;;;;;;6929802;28;20795;-68
2021/01/16 09:32:55;;;;;;;10.25;7.00;;;0.80;99.90;;;;;;6934381;28;20465;-67
2021/01/16 09:36:35;;;;;;;10.45;7.05;;;0.90;99.90;;;;;;6937473;28;20422;-67
2021/01/16 09:40:09;;;;;;;11.90;7.30;;;1.10;99.90;;;;;;6946322;28;20439;-67
2021/01/16 09:43:39;;;;;;;10.65;6.60;;;1.20;99.90;;;;;;6931319;28;20402;-68
2021/01/16 09:46:59;;;;;;;10.45;6.97;;;1.20;99.90;;;;;;6920756;28;20890;-69
2021/01/16 09:50:25;;;;;;;10.63;7.18;;;1.30;99.90;;;;;;6938528;28;20406;-68
2021/01/16 09:53:46;;;;;;;10.63;6.90;;;1.50;99.90;;;;;;6926909;28;20919;-68
2021/01/16 09:57:08;;;;;;;9.77;6.55;;;1.60;99.90;;;;;;6933020;28;20523;-69
2021/01/16 10:00:30;;;;;;;9.10;6.50;;;1.60;99.90;;;;;;6913465;28;20431;-69
2021/01/16 10:03:52;;;;;;;10.20;7.10;;;1.60;99.90;;;;;;6937177;28;20435;-68
2021/01/16 10:07:15;;;;;;;9.00;6.40;;;1.70;99.90;;;;;;6939596;28;20408;-68
2021/01/16 10:10:44;;;;;;;10.35;6.70;;;1.70;99.90;;;;;;6918497;28;20415;-67
2021/01/16 10:14:17;;;;;;;9.45;6.70;;;1.80;99.90;;;;;;6958917;28;20439;-68
2021/01/16 10:17:44;;;;;;;10.95;6.60;;;1.90;99.90;;;;;;6947939;28;20397;-68
2021/01/16 10:21:09;;;;;;;9.00;6.53;;;2.20;99.90;;;;;;6940417;28;20403;-69
2021/01/16 10:24:30;;;;;;;10.88;6.82;;;2.40;99.90;;;;;;6933092;28;20443;-68
2021/01/16 10:27:54;;;;;;;8.95;6.80;;;2.50;99.90;;;;;;6936338;28;20403;-68
2021/01/16 10:31:23;;;;;;;9.13;6.30;;;2.80;99.90;;;;;;6931299;28;20890;-68
2021/01/16 10:34:44;;;;;;;12.70;10.52;;;2.80;99.90;;;;;;6918042;28;21024;-68
2021/01/16 10:38:10;;;;;;;8.50;6.07;;;2.80;99.90;;;;;;6925984;28;20395;-69
2021/01/16 10:41:30;;;;;;;9.37;6.50;;;2.90;99.90;;;;;;6948470;28;20795;-68
2021/01/16 10:44:59;;;;;;;17.63;13.00;;;3.20;99.90;;;;;;6930662;28;20965;-68
2021/01/16 10:48:29;;;;;;;20.67;13.70;;;3.40;99.90;;;;;;6930644;28;20407;-70
2021/01/16 10:52:02;;;;;;;8.65;6.40;;;3.60;99.90;;;;;;6947372;28;20395;-70
2021/01/16 10:55:23;;;;;;;11.55;8.20;;;4.00;99.90;;;;;;6925418;28;20450;-70
2021/01/16 10:58:44;;;;;;;9.73;6.20;;;4.30;99.90;;;;;;6925005;28;20432;-68
2021/01/16 11:02:13;;;;;;;15.13;9.95;;;4.70;99.90;;;;;;6920809;28;20498;-68
2021/01/16 11:05:36;;;;;;;11.00;7.47;;;6.50;99.90;;;;;;6924024;28;20391;-68
2021/01/16 11:09:00;;;;;;;9.00;6.50;;;6.10;99.90;;;;;;6922010;28;20821;-66
2021/01/16 11:12:25;;;;;;;13.02;9.10;;;5.30;99.90;;;;;;6944878;28;20436;-68
2021/01/16 11:15:52;;;;;;;16.10;9.98;;;4.80;99.90;;;;;;6947527;28;21454;-67
2021/01/16 11:19:17;;;;;;;24.95;14.95;;;4.70;99.90;;;;;;6928468;28;20408;-68
2021/01/16 11:22:45;;;;;;;11.85;7.40;;;6.30;99.90;;;;;;6934368;28;20900;-67
2021/01/16 11:26:09;;;;;;;13.80;8.10;;;7.10;99.90;;;;;;6929361;28;20415;-68
2021/01/16 11:29:41;;;;;;;12.10;7.97;;;6.90;99.90;;;;;;6930323;28;20750;-67
2021/01/16 11:33:11;;;;;;;9.00;6.70;;;7.90;99.90;;;;;;6923452;28;20867;-69
2021/01/16 11:36:32;;;;;;;9.93;6.63;;;10.00;99.90;;;;;;6935316;28;20868;-68
2021/01/16 11:39:54;;;;;;;9.40;6.70;;;12.40;99.90;;;;;;6939350;28;20489;-69
2021/01/16 11:43:15;;;;;;;22.10;11.77;;;12.30;96.60;;;;;;6942516;28;20410;-70
2021/01/16 11:46:36;;;;;;;12.50;8.10;;;9.30;96.70;;;;;;6929431;28;20417;-70
2021/01/16 11:49:59;;;;;;;9.47;6.93;;;8.70;98.80;;;;;;6928068;28;20411;-69
2021/01/16 11:53:20;;;;;;;8.10;6.30;;;11.20;97.30;;;;;;6931559;28;20790;-69
2021/01/16 11:56:41;;;;;;;7.80;5.93;;;13.50;96.80;;;;;;6942365;28;20414;-69
2021/01/16 12:00:03;;;;;;;9.13;6.50;;;14.30;94.50;;;;;;6938312;28;20395;-69
2021/01/16 12:03:33;;;;;;;8.45;6.50;;;14.80;93.90;;;;;;6963218;28;20399;-70
2021/01/16 12:06:59;;;;;;;8.85;6.85;;;16.10;93.50;;;;;;6948944;28;20405;-69
2021/01/16 12:10:28;;;;;;;8.63;6.80;;;16.70;91.00;;;;;;6936018;28;20411;-69
2021/01/16 12:13:50;;;;;;;8.98;7.43;;;17.00;90.40;;;;;;6954758;28;20877;-69
2021/01/16 12:17:13;;;;;;;9.77;7.70;;;18.10;90.60;;;;;;6938349;28;20906;-70
2021/01/16 12:20:34;;;;;;;9.30;7.43;;;19.20;89.00;;;;;;6948292;28;20416;-70
2021/01/16 12:23:59;;;;;;;11.02;7.88;;;19.20;85.90;;;;;;6947760;28;20404;-70
2021/01/16 12:27:22;;;;;;;9.60;7.93;;;19.60;83.70;;;;;;6944181;28;20471;-70
2021/01/16 12:30:45;;;;;;;9.45;7.65;;;19.30;83.10;;;;;;6949012;28;20714;-68
2021/01/16 12:34:07;;;;;;;10.30;7.72;;;19.80;82.40;;;;;;6961035;28;20419;-70
2021/01/16 12:37:32;;;;;;;10.07;7.85;;;19.80;80.00;;;;;;6949844;28;20702;-69
2021/01/16 12:40:53;;;;;;;10.13;8.37;;;19.60;80.30;;;;;;6943958;28;20747;-69
2021/01/16 12:44:14;;;;;;;11.05;8.30;;;19.50;79.80;;;;;;6956818;28;20405;-68
2021/01/16 12:47:37;;;;;;;10.68;8.68;;;19.30;79.10;;;;;;6950589;28;20415;-69
2021/01/16 12:51:03;;;;;;;10.45;8.20;;;17.80;79.10;;;;;;6952050;28;20407;-69
2021/01/16 12:54:24;;;;;;;10.63;8.13;;;16.60;80.50;;;;;;6928951;28;20473;-70
2021/01/16 12:57:47;;;;;;;9.83;7.90;;;15.90;80.30;;;;;;6944312;28;20845;-71
2021/01/16 13:01:08;;;;;;;9.80;7.50;;;14.80;81.10;;;;;;6953101;28;20890;-68
2021/01/16 13:04:29;;;;;;;9.70;7.20;;;12.70;82.90;;;;;;6932211;28;20516;-69
2021/01/16 13:07:55;;;;;;;8.10;6.70;;;11.40;84.60;;;;;;6937501;28;20396;-69
2021/01/16 13:11:22;;;;;;;8.30;6.50;;;11.90;85.60;;;;;;6933695;28;20436;-70
2021/01/16 13:14:51;;;;;;;9.02;6.93;;;12.10;85.10;;;;;;6958871;28;20450;-70
2021/01/16 13:18:25;;;;;;;8.90;7.10;;;12.40;85.80;;;;;;6941773;28;20406;-69
2021/01/16 13:21:50;;;;;;;8.32;6.80;;;12.90;86.10;;;;;;6954906;28;20855;-69
2021/01/16 13:25:20;;;;;;;10.25;7.40;;;13.50;83.30;;;;;;6935657;28;20941;-69
2021/01/16 13:28:42;;;;;;;9.52;7.20;;;14.10;84.60;;;;;;6974353;28;20959;-69
2021/01/16 13:32:05;;;;;;;9.80;7.30;;;14.40;85.10;;;;;;6936769;28;20417;-70
2021/01/16 13:35:30;;;;;;;8.45;7.00;;;14.40;84.10;;;;;;6923398;28;20485;-69
2021/01/16 13:38:53;;;;;;;8.80;6.70;;;14.20;83.90;;;;;;6914189;28;20400;-69
2021/01/16 13:42:30;;;;;;;8.65;7.18;;;12.80;83.90;;;;;;6933970;28;20512;-69
2021/01/16 13:45:53;;;;;;;9.48;7.55;;;11.20;85.40;;;;;;6932917;28;20454;-70
2021/01/16 13:49:28;;;;;;;10.15;7.43;;;9.90;88.90;;;;;;6935554;28;20924;-70
2021/01/16 13:52:53;;;;;;;10.45;7.50;;;8.40;90.40;;;;;;6932088;28;20451;-69
2021/01/16 13:56:15;;;;;;;10.20;7.50;;;7.60;91.50;;;;;;6935966;28;20421;-69
2021/01/16 13:59:35;;;;;;;11.23;7.37;;;6.70;92.50;;;;;;6956971;28;20409;-68
2021/01/16 14:02:57;;;;;;;11.57;7.63;;;6.10;93.60;;;;;;6938810;28;20434;-69
2021/01/16 14:06:18;;;;;;;10.82;7.68;;;5.50;94.60;;;;;;6957712;28;20906;-69
2021/01/16 14:09:42;;;;;;;11.40;7.70;;;5.10;95.20;;;;;;6951140;28;20397;-68
2021/01/16 14:13:12;;;;;;;10.20;6.97;;;5.00;95.80;;;;;;6951867;28;20491;-68
2021/01/16 14:16:33;;;;;;;10.40;7.20;;;5.00;96.10;;;;;;6942282;28;20422;-68
2021/01/16 14:20:01;;;;;;;10.60;7.30;;;4.80;96.30;;;;;;6949361;28;20396;-68
2021/01/16 14:23:34;;;;;;;9.90;7.50;;;4.50;96.90;;;;;;6938807;28;20955;-68
2021/01/16 14:26:59;;;;;;;10.95;7.70;;;4.30;97.10;;;;;;6936125;28;20889;-69
2021/01/16 14:30:38;;;;;;;10.25;7.25;;;4.00;98.10;;;;;;6933597;28;20499;-69
2021/01/16 14:34:01;;;;;;;10.52;7.30;;;3.70;98.20;;;;;;6971442;28;20512;-69
2021/01/16 14:37:30;;;;;;;10.48;7.25;;;3.60;98.70;;;;;;6922682;28;20425;-69
2021/01/16 14:40:51;;;;;;;10.00;7.30;;;3.30;98.80;;;;;;6963026;28;20677;-68
2021/01/16 14:44:30;;;;;;;11.07;7.20;;;3.00;99.70;;;;;;6930458;28;20415;-69
2021/01/16 14:47:51;;;;;;;10.18;7.10;;;2.80;99.90;;;;;;6982475;28;20405;-68
2021/01/16 14:51:13;;;;;;;10.63;7.32;;;2.50;99.90;;;;;;6940348;28;20417;-68
2021/01/16 14:54:58;;;;;;;10.05;6.90;;;2.20;99.90;;;;;;6940021;28;20407;-69
2021/01/16 14:58:21;;;;;;;9.80;6.80;;;1.90;99.90;;;;;;6920991;28;20406;-67
2021/01/16 15:01:48;;;;;;;11.10;7.50;;;1.80;99.90;;;;;;6955208;28;20465;-69
2021/01/16 15:05:10;;;;;;;10.98;7.15;;;1.80;99.90;;;;;;6944707;28;20882;-68
2021/01/16 15:08:46;;;;;;;11.65;7.70;;;1.50;99.90;;;;;;6929193;28;20414;-68
2021/01/16 15:12:13;;;;;;;10.70;7.10;;;1.40;99.90;;;;;;6944377;28;20407;-70
2021/01/16 15:15:34;;;;;;;10.77;7.10;;;1.30;99.90;;;;;;6933839;28;20823;-68
2021/01/16 15:18:55;;;;;;;11.30;7.50;;;1.20;99.90;;;;;;6933899;28;20399;-68
2021/01/16 15:22:16;;;;;;;10.13;6.80;;;1.00;99.90;;;;;;6943057;28;20902;-68
2021/01/16 15:25:37;;;;;;;10.68;6.90;;;0.90;99.90;;;;;;6939946;28;20406;-68
2021/01/16 15:28:58;;;;;;;10.60;7.23;;;0.80;99.90;;;;;;6932949;28;20410;-69
2021/01/16 15:32:22;;;;;;;9.45;6.75;;;0.70;99.90;;;;;;6931155;28;20407;-68
2021/01/16 15:35:47;;;;;;;8.40;5.93;;;0.60;99.90;;;;;;6921839;28;20445;-69
2021/01/16 15:39:09;;;;;;;9.20;6.47;;;0.30;99.90;;;;;;6946013;28;20413;-69
2021/01/16 15:42:31;;;;;;;10.35;6.43;;;0.10;99.90;;;;;;6923172;28;20484;-69
2021/01/16 15:46:07;;;;;;;9.43;6.18;;;-0.10;99.90;;;;;;6929593;28;20767;-69
2021/01/16 15:49:28;;;;;;;9.05;6.25;;;-0.10;99.90;;;;;;6925673;28;20969;-69
2021/01/16 15:52:50;;;;;;;9.10;6.40;;;-0.10;99.90;;;;;;6926582;28;20435;-69
2021/01/16 15:56:11;;;;;;;8.90;6.10;;;-0.20;99.90;;;;;;6943055;28;21004;-69
2021/01/16 15:59:32;;;;;;;8.93;6.22;;;-0.40;99.90;;;;;;6925486;28;21102;-69
2021/01/16 16:03:06;;;;;;;10.02;6.80;;;-0.40;99.90;;;;;;6928995;28;20399;-69
2021/01/16 16:06:27;;;;;;;9.55;6.75;;;-0.40;99.90;;;;;;6925111;28;20391;-69
2021/01/16 16:09:48;;;;;;;9.60;6.43;;;-0.50;99.90;;;;;;6923868;28;20406;-69
2021/01/16 16:13:09;;;;;;;9.23;6.10;;;-0.60;99.90;;;;;;6926501;28;20767;-69
2021/01/16 16:16:31;;;;;;;10.10;6.53;;;-0.60;99.90;;;;;;6925909;28;20426;-70
2021/01/16 16:19:52;;;;;;;9.98;6.68;;;-0.70;99.90;;;;;;6926038;28;20399;-69
2021/01/16 16:23:13;;;;;;;10.43;7.10;;;-0.90;99.90;;;;;;6941118;28;20491;-69
2021/01/16 16:26:34;;;;;;;9.50;6.40;;;-1.00;99.90;;;;;;6928876;28;20551;-69
2021/01/16 16:29:54;;;;;;;10.03;6.73;;;-1.00;99.90;;;;;;6930368;28;20399;-69
2021/01/16 16:33:15;;;;;;;10.55;6.95;;;-1.00;99.90;;;;;;6957855;28;20514;-69
2021/01/16 16:36:41;;;;;;;10.77;6.97;;;-1.00;99.90;;;;;;6939276;28;20411;-69
2021/01/16 16:40:02;;;;;;;10.23;6.93;;;-1.00;99.90;;;;;;6947626;28;20434;-69
2021/01/16 16:43:23;;;;;;;9.88;6.72;;;-1.00;99.90;;;;;;6924587;28;20460;-69
2021/01/16 16:46:44;;;;;;;9.80;6.55;;;-1.00;99.90;;;;;;6927051;28;20401;-69
2021/01/16 16:50:07;;;;;;;10.10;7.10;;;-1.10;99.90;;;;;;6944096;28;20914;-69
2021/01/16 16:53:27;;;;;;;9.60;6.75;;;-1.20;99.90;;;;;;6934640;28;20411;-68
2021/01/16 16:56:48;;;;;;;11.10;6.78;;;-1.10;99.90;;;;;;6933609;28;20407;-68
2021/01/16 17:00:10;;;;;;;9.45;6.28;;;-1.20;99.90;;;;;;6943136;28;20831;-69
2021/01/16 17:03:31;;;;;;;9.80;7.00;;;-1.20;99.90;;;;;;6942023;28;20395;-69
2021/01/16 17:06:52;;;;;;;10.33;7.00;;;-1.20;99.90;;;;;;6922033;28;20434;-69
2021/01/16 17:10:14;;;;;;;10.43;7.03;;;-1.20;99.90;;;;;;6942565;28;20403;-68
2021/01/16 17:13:34;;;;;;;10.10;6.93;;;-1.30;99.90;;;;;;6930732;28;20530;-68
2021/01/16 17:16:55;;;;;;;10.00;6.83;;;-1.30;99.90;;;;;;6948772;28;20423;-68
2021/01/16 17:20:16;;;;;;;10.25;6.72;;;-1.30;99.90;;;;;;6931052;28;20406;-68
2021/01/16 17:23:37;;;;;;;10.48;7.20;;;-1.40;99.90;;;;;;6932627;28;20415;-68
2021/01/16 17:26:58;;;;;;;10.95;6.70;;;-1.30;99.90;;;;;;6944699;28;20987;-69
2021/01/16 17:30:20;;;;;;;9.35;6.70;;;-1.30;99.90;;;;;;6917320;28;20921;-68
2021/01/16 17:33:41;;;;;;;10.35;6.60;;;-1.30;99.90;;;;;;6938028;28;20449;-68
2021/01/16 17:37:06;;;;;;;11.15;7.20;;;-1.30;99.90;;;;;;6925253;28;20408;-68
2021/01/16 17:40:27;;;;;;;10.37;7.10;;;-1.20;99.90;;;;;;6941921;28;20403;-68
2021/01/16 17:43:48;;;;;;;11.83;7.07;;;-1.10;99.90;;;;;;6937191;28;20812;-68